Time;durP1;ratioP1;P1;durP2;ratioP2;P2;SDS_P1;SDS_P2;PMS_P1;PMS_P2;Temp;Humidity;BMP_temperature;BMP_pressure;BME280_temperature;BME280_humidity;BME280_pressure;Samples;Min_cycle;Max_cycle;Signal;HPM_P1;HPM_P2
2023/07/30 00:02:01;;;;;;;2.43;1.60;;;;;;;;;;5042294;28;20187;-76
2023/07/30 00:04:27;;;;;;;1.70;1.30;;;;;;;;;;5043752;28;20237;-76
2023/07/30 00:06:53;;;;;;;2.00;1.40;;;;;;;;;;5039929;28;20257;-77
2023/07/30 00:09:18;;;;;;;1.10;1.00;;;;;;;;;;5047288;28;20180;-76
2023/07/30 00:11:43;;;;;;;2.30;1.10;;;;;;;;;;5034910;28;20263;-76
2023/07/30 00:14:09;;;;;;;1.57;1.20;;;;;;;;;;5038868;28;20193;-76
2023/07/30 00:16:34;;;;;;;1.30;1.00;;;;;;;;;;5043170;28;20177;-76
2023/07/30 00:18:59;;;;;;;1.80;1.30;;;;;;;;;;5035053;28;20354;-76
2023/07/30 00:21:24;;;;;;;1.20;1.10;;;;;;;;;;5041043;28;20276;-76
2023/07/30 00:23:49;;;;;;;2.33;1.20;;;;;;;;;;5037832;28;20209;-76
2023/07/30 00:26:15;;;;;;;1.70;1.13;;;;;;;;;;5040905;28;20185;-76
2023/07/30 00:28:40;;;;;;;2.50;1.50;;;;;;;;;;5048809;28;20181;-76
2023/07/30 00:31:05;;;;;;;2.17;1.40;;;;;;;;;;5052823;28;20183;-76
2023/07/30 00:33:30;;;;;;;1.30;1.20;;;;;;;;;;5035986;28;20216;-76
2023/07/30 00:35:56;;;;;;;1.30;1.20;;;;;;;;;;5043936;28;20258;-76
2023/07/30 00:38:21;;;;;;;2.30;1.63;;;;;;;;;;5047262;28;20183;-76
2023/07/30 00:40:46;;;;;;;1.50;1.40;;;;;;;;;;5040352;28;20174;-76
2023/07/30 00:43:11;;;;;;;1.53;1.40;;;;;;;;;;5034956;28;20196;-76
2023/07/30 00:45:38;;;;;;;1.83;1.67;;;;;;;;;;5040198;28;20178;-76
2023/07/30 00:48:04;;;;;;;1.37;1.27;;;;;;;;;;5036212;28;20202;-76
2023/07/30 00:50:29;;;;;;;1.30;1.20;;;;;;;;;;5041862;28;20181;-76
2023/07/30 00:52:54;;;;;;;1.83;1.20;;;;;;;;;;5039996;28;20228;-76
2023/07/30 00:55:19;;;;;;;1.57;1.47;;;;;;;;;;5039788;28;20279;-76
2023/07/30 00:57:45;;;;;;;3.13;1.50;;;;;;;;;;5040366;28;20179;-76
2023/07/30 01:00:10;;;;;;;2.50;1.50;;;;;;;;;;5041361;28;20167;-76
2023/07/30 01:02:36;;;;;;;2.50;1.70;;;;;;;;;;5040813;28;20187;-75
2023/07/30 01:05:03;;;;;;;1.80;1.50;;;;;;;;;;5036896;28;20197;-76
2023/07/30 01:07:28;;;;;;;1.53;1.43;;;;;;;;;;5040700;28;20190;-76
2023/07/30 01:09:54;;;;;;;1.70;1.60;;;;;;;;;;5047700;28;20183;-76
2023/07/30 01:12:19;;;;;;;1.40;1.30;;;;;;;;;;5034618;28;20214;-76
2023/07/30 01:14:45;;;;;;;1.97;1.40;;;;;;;;;;5037014;28;20270;-76
2023/07/30 01:17:11;;;;;;;1.77;1.23;;;;;;;;;;5044402;28;20200;-76
2023/07/30 01:19:36;;;;;;;1.70;1.60;;;;;;;;;;5037379;28;20185;-76
2023/07/30 01:22:01;;;;;;;1.57;1.47;;;;;;;;;;5036346;28;20188;-76
2023/07/30 01:24:26;;;;;;;1.90;1.80;;;;;;;;;;5042365;28;20332;-76
2023/07/30 01:26:56;;;;;;;2.00;1.63;;;;;;;;;;5031762;28;20194;-76
2023/07/30 01:29:24;;;;;;;1.80;1.57;;;;;;;;;;5035316;28;20197;-76
2023/07/30 01:31:54;;;;;;;1.80;1.70;;;;;;;;;;5041876;28;20219;-76
2023/07/30 01:34:20;;;;;;;1.67;1.57;;;;;;;;;;5049910;28;20171;-76
2023/07/30 01:36:46;;;;;;;2.27;1.67;;;;;;;;;;5043918;28;20183;-76
2023/07/30 01:39:12;;;;;;;2.87;1.77;;;;;;;;;;5043119;28;20191;-76
2023/07/30 01:41:37;;;;;;;2.60;2.40;;;;;;;;;;5039431;28;20186;-76
2023/07/30 01:44:03;;;;;;;2.20;2.00;;;;;;;;;;5037230;28;20199;-77
2023/07/30 01:46:28;;;;;;;2.60;1.80;;;;;;;;;;5039306;28;20228;-76
2023/07/30 01:48:53;;;;;;;1.97;1.80;;;;;;;;;;5039573;28;20234;-76
2023/07/30 01:51:18;;;;;;;2.17;1.97;;;;;;;;;;5032451;28;20186;-76
2023/07/30 01:53:43;;;;;;;2.20;2.00;;;;;;;;;;5035233;28;20247;-76
2023/07/30 01:56:08;;;;;;;2.17;1.97;;;;;;;;;;5046743;28;20173;-76
2023/07/30 01:58:34;;;;;;;2.13;1.90;;;;;;;;;;5036189;28;20272;-76
2023/07/30 02:00:59;;;;;;;2.80;2.23;;;;;;;;;;5033984;28;20261;-76
2023/07/30 02:03:25;;;;;;;2.10;1.90;;;;;;;;;;5043090;28;20228;-76
2023/07/30 02:05:50;;;;;;;2.27;1.80;;;;;;;;;;5044865;28;20184;-76
2023/07/30 02:08:15;;;;;;;2.33;2.13;;;;;;;;;;5039381;28;20188;-76
2023/07/30 02:10:41;;;;;;;2.00;1.80;;;;;;;;;;5035334;28;20172;-76
2023/07/30 02:13:06;;;;;;;3.17;1.93;;;;;;;;;;5034968;28;20256;-76
2023/07/30 02:15:31;;;;;;;2.60;2.13;;;;;;;;;;5044997;28;20175;-76
2023/07/30 02:17:56;;;;;;;2.30;2.10;;;;;;;;;;5042363;28;20234;-76
2023/07/30 02:20:21;;;;;;;2.97;1.90;;;;;;;;;;5041117;28;20176;-76
2023/07/30 02:22:47;;;;;;;4.33;2.33;;;;;;;;;;5037584;28;20181;-76
2023/07/30 02:25:13;;;;;;;2.83;2.10;;;;;;;;;;5039573;28;20268;-76
2023/07/30 02:27:38;;;;;;;3.50;2.50;;;;;;;;;;5037066;28;20265;-78
2023/07/30 02:30:04;;;;;;;2.87;2.20;;;;;;;;;;5043461;28;20200;-76
2023/07/30 02:32:29;;;;;;;2.73;2.50;;;;;;;;;;5033687;28;20202;-76
2023/07/30 02:34:54;;;;;;;3.93;2.50;;;;;;;;;;5041055;28;20177;-76
2023/07/30 02:37:19;;;;;;;2.33;2.13;;;;;;;;;;5039329;28;20173;-76
2023/07/30 02:39:45;;;;;;;2.57;2.20;;;;;;;;;;5042042;28;20185;-76
2023/07/30 02:42:10;;;;;;;2.83;2.60;;;;;;;;;;5043002;28;20168;-76
2023/07/30 02:44:35;;;;;;;2.63;2.40;;;;;;;;;;5041448;28;20252;-76
2023/07/30 02:47:00;;;;;;;2.20;2.00;;;;;;;;;;5035698;28;20192;-76
2023/07/30 02:49:25;;;;;;;3.40;2.30;;;;;;;;;;5044023;28;20263;-76
2023/07/30 02:51:51;;;;;;;2.50;2.30;;;;;;;;;;5045558;28;20215;-76
2023/07/30 02:54:16;;;;;;;2.40;2.20;;;;;;;;;;5035766;28;20279;-76
2023/07/30 02:56:42;;;;;;;3.27;2.30;;;;;;;;;;5044925;28;20180;-76
2023/07/30 02:59:08;;;;;;;3.13;2.40;;;;;;;;;;5042851;28;20231;-76
2023/07/30 03:01:33;;;;;;;4.63;2.47;;;;;;;;;;5040983;28;20271;-76
2023/07/30 03:03:58;;;;;;;4.17;2.17;;;;;;;;;;5048788;28;20327;-76
2023/07/30 03:06:23;;;;;;;1.90;1.80;;;;;;;;;;5039986;28;20238;-76
2023/07/30 03:08:48;;;;;;;2.40;2.20;;;;;;;;;;5040739;28;20191;-76
2023/07/30 03:11:14;;;;;;;3.53;1.90;;;;;;;;;;5040496;28;20170;-76
2023/07/30 03:13:39;;;;;;;2.90;2.63;;;;;;;;;;5049473;28;20207;-76
2023/07/30 03:16:04;;;;;;;2.30;2.10;;;;;;;;;;5049776;28;20172;-76
2023/07/30 03:18:30;;;;;;;2.40;2.20;;;;;;;;;;5043073;28;20220;-76
2023/07/30 03:21:00;;;;;;;1.77;1.67;;;;;;;;;;5050616;28;20193;-76
2023/07/30 03:23:25;;;;;;;2.80;2.03;;;;;;;;;;5043973;28;20185;-77
2023/07/30 03:25:50;;;;;;;2.60;1.70;;;;;;;;;;5045942;28;20178;-77
2023/07/30 03:28:15;;;;;;;1.50;1.40;;;;;;;;;;5042013;28;20179;-76
2023/07/30 03:30:40;;;;;;;2.90;1.60;;;;;;;;;;5047975;28;20265;-76
2023/07/30 03:33:06;;;;;;;2.87;1.60;;;;;;;;;;5038971;28;20205;-76
2023/07/30 03:35:31;;;;;;;2.30;2.10;;;;;;;;;;5045179;28;20180;-76
2023/07/30 03:37:56;;;;;;;2.00;1.60;;;;;;;;;;5044249;28;20180;-76
2023/07/30 03:40:21;;;;;;;2.20;1.90;;;;;;;;;;5041375;28;20263;-76
2023/07/30 03:42:46;;;;;;;2.37;1.80;;;;;;;;;;5037129;28;20189;-76
2023/07/30 03:45:12;;;;;;;2.00;1.90;;;;;;;;;;5037957;28;20265;-76
2023/07/30 03:47:37;;;;;;;2.13;1.60;;;;;;;;;;5042844;28;20199;-76
2023/07/30 03:50:02;;;;;;;1.50;1.33;;;;;;;;;;5045444;28;20176;-76
2023/07/30 03:52:27;;;;;;;1.90;1.80;;;;;;;;;;5042983;28;20259;-76
2023/07/30 03:54:52;;;;;;;1.70;1.60;;;;;;;;;;5045571;28;20186;-76
2023/07/30 03:57:18;;;;;;;3.90;1.50;;;;;;;;;;5042572;28;20264;-76
2023/07/30 03:59:43;;;;;;;2.37;1.90;;;;;;;;;;5042087;28;20188;-76
2023/07/30 04:02:08;;;;;;;1.90;1.70;;;;;;;;;;5043706;28;20173;-76
2023/07/30 04:04:33;;;;;;;1.67;1.57;;;;;;;;;;5043075;28;20231;-76
2023/07/30 04:06:58;;;;;;;2.53;1.80;;;;;;;;;;5041782;28;20185;-76
2023/07/30 04:09:24;;;;;;;2.10;1.90;;;;;;;;;;5045201;28;20185;-76
2023/07/30 04:11:49;;;;;;;1.93;1.60;;;;;;;;;;5039791;28;20215;-76
2023/07/30 04:14:14;;;;;;;2.80;1.53;;;;;;;;;;5043102;28;20176;-76
2023/07/30 04:16:39;;;;;;;1.60;1.50;;;;;;;;;;5034377;28;20194;-76
2023/07/30 04:19:04;;;;;;;1.80;1.70;;;;;;;;;;5043340;28;20181;-76
2023/07/30 04:21:30;;;;;;;1.60;1.47;;;;;;;;;;5034671;28;20209;-76
2023/07/30 04:23:55;;;;;;;1.57;1.47;;;;;;;;;;5038354;28;20241;-76
2023/07/30 04:26:20;;;;;;;1.77;1.50;;;;;;;;;;5039756;28;20193;-78
2023/07/30 04:28:45;;;;;;;1.90;1.80;;;;;;;;;;5044655;28;20178;-77
2023/07/30 04:31:10;;;;;;;2.80;1.90;;;;;;;;;;5045380;28;20284;-77
2023/07/30 04:33:36;;;;;;;1.80;1.70;;;;;;;;;;5041010;28;20189;-76
2023/07/30 04:36:02;;;;;;;2.03;1.67;;;;;;;;;;5041927;28;20232;-76
2023/07/30 04:38:27;;;;;;;2.50;1.70;;;;;;;;;;5039548;28;20216;-76
2023/07/30 04:40:52;;;;;;;1.70;1.60;;;;;;;;;;5041523;28;20201;-76
2023/07/30 04:43:17;;;;;;;1.77;1.67;;;;;;;;;;5040197;28;20185;-76
2023/07/30 04:45:43;;;;;;;1.43;1.33;;;;;;;;;;5037292;28;20236;-76
2023/07/30 04:48:08;;;;;;;1.93;1.60;;;;;;;;;;5040124;28;20251;-76
2023/07/30 04:50:33;;;;;;;5.03;2.27;;;;;;;;;;5042038;28;20189;-76
2023/07/30 04:52:58;;;;;;;5.40;2.03;;;;;;;;;;5042589;28;20213;-76
2023/07/30 04:55:24;;;;;;;2.23;1.73;;;;;;;;;;5036355;28;20236;-76
2023/07/30 04:57:49;;;;;;;1.60;1.50;;;;;;;;;;5040403;28;20261;-76
2023/07/30 05:00:14;;;;;;;1.60;1.50;;;;;;;;;;5037069;28;20178;-76
2023/07/30 05:02:39;;;;;;;1.70;1.60;;;;;;;;;;5040518;28;20181;-76
2023/07/30 05:05:05;;;;;;;1.80;1.70;;;;;;;;;;5038374;28;20185;-76
2023/07/30 05:07:30;;;;;;;2.07;1.83;;;;;;;;;;5041428;28;20192;-76
2023/07/30 05:09:55;;;;;;;1.60;1.50;;;;;;;;;;5040118;28;20226;-76
2023/07/30 05:12:20;;;;;;;2.00;1.80;;;;;;;;;;5041640;28;20201;-76
2023/07/30 05:14:45;;;;;;;1.53;1.43;;;;;;;;;;5038058;28;20200;-76
2023/07/30 05:17:11;;;;;;;1.97;1.83;;;;;;;;;;5040669;28;20257;-77
2023/07/30 05:19:36;;;;;;;1.80;1.70;;;;;;;;;;5044890;28;20193;-76
2023/07/30 05:22:01;;;;;;;2.10;1.73;;;;;;;;;;5041568;28;20183;-76
2023/07/30 05:24:27;;;;;;;1.90;1.70;;;;;;;;;;5039885;28;20209;-76
2023/07/30 05:26:52;;;;;;;1.50;1.40;;;;;;;;;;5038754;28;20193;-76
2023/07/30 05:29:17;;;;;;;1.60;1.50;;;;;;;;;;5039678;28;20296;-76
2023/07/30 05:31:42;;;;;;;1.50;1.40;;;;;;;;;;5037985;28;20205;-76
2023/07/30 05:34:08;;;;;;;1.80;1.70;;;;;;;;;;5038488;28;20185;-76
2023/07/30 05:36:33;;;;;;;2.10;1.90;;;;;;;;;;5036393;28;20201;-76
2023/07/30 05:38:58;;;;;;;2.40;1.93;;;;;;;;;;5041809;28;20181;-76
2023/07/30 05:41:23;;;;;;;2.37;2.17;;;;;;;;;;5039838;28;20189;-76
2023/07/30 05:43:48;;;;;;;2.37;1.90;;;;;;;;;;5039302;28;20192;-76
2023/07/30 05:46:14;;;;;;;2.47;2.27;;;;;;;;;;5034028;28;20218;-76
2023/07/30 05:48:39;;;;;;;3.60;1.97;;;;;;;;;;5035125;28;20184;-76
2023/07/30 05:51:04;;;;;;;2.13;2.00;;;;;;;;;;5037815;28;20183;-76
2023/07/30 05:53:29;;;;;;;2.50;2.30;;;;;;;;;;5036830;28;20279;-76
2023/07/30 05:55:54;;;;;;;1.90;1.70;;;;;;;;;;5042728;28;20169;-77
2023/07/30 05:58:20;;;;;;;2.50;2.17;;;;;;;;;;5041095;28;20181;-76
2023/07/30 06:00:45;;;;;;;2.80;2.17;;;;;;;;;;5044229;28;20234;-76
2023/07/30 06:03:10;;;;;;;3.23;2.67;;;;;;;;;;5041684;28;20243;-76
2023/07/30 06:05:40;;;;;;;3.43;3.13;;;;;;;;;;5041733;28;20188;-77
2023/07/30 06:08:05;;;;;;;2.40;2.20;;;;;;;;;;5035100;28;20203;-76
2023/07/30 06:10:30;;;;;;;3.00;2.70;;;;;;;;;;5040930;28;20274;-77
2023/07/30 06:12:55;;;;;;;2.07;1.90;;;;;;;;;;5039215;28;20213;-76
2023/07/30 06:15:21;;;;;;;2.13;1.90;;;;;;;;;;5039452;28;20176;-77
2023/07/30 06:17:46;;;;;;;1.80;1.70;;;;;;;;;;5034560;28;20182;-76
2023/07/30 06:20:11;;;;;;;1.90;1.80;;;;;;;;;;5042379;28;20230;-76
2023/07/30 06:22:36;;;;;;;2.07;1.87;;;;;;;;;;5044530;28;20193;-76
2023/07/30 06:25:02;;;;;;;1.77;1.67;;;;;;;;;;5041156;28;20213;-76
2023/07/30 06:27:30;;;;;;;2.20;2.00;;;;;;;;;;5042051;28;20184;-76
2023/07/30 06:29:55;;;;;;;2.03;1.87;;;;;;;;;;5048304;28;20204;-76
2023/07/30 06:32:20;;;;;;;2.07;1.80;;;;;;;;;;5042330;28;20287;-76
2023/07/30 06:34:46;;;;;;;2.87;1.80;;;;;;;;;;5046248;28;20200;-77
2023/07/30 06:37:11;;;;;;;2.23;2.03;;;;;;;;;;5039797;28;20189;-76
2023/07/30 06:39:36;;;;;;;1.70;1.60;;;;;;;;;;5034444;28;20180;-76
2023/07/30 06:42:01;;;;;;;2.57;2.00;;;;;;;;;;5051531;28;20178;-77
2023/07/30 06:44:26;;;;;;;1.87;1.77;;;;;;;;;;5045394;28;20221;-76
2023/07/30 06:46:52;;;;;;;2.20;2.00;;;;;;;;;;5047975;28;20207;-77
2023/07/30 06:49:17;;;;;;;1.80;1.70;;;;;;;;;;5040956;28;20215;-77
2023/07/30 06:51:42;;;;;;;2.30;1.97;;;;;;;;;;5050045;28;20181;-78
2023/07/30 06:54:07;;;;;;;1.90;1.80;;;;;;;;;;5041722;28;20209;-77
2023/07/30 06:56:32;;;;;;;1.50;1.40;;;;;;;;;;5044654;28;20202;-77
2023/07/30 06:58:58;;;;;;;1.70;1.53;;;;;;;;;;5037532;28;20173;-77
2023/07/30 07:01:25;;;;;;;1.70;1.60;;;;;;;;;;5042643;28;20207;-77
2023/07/30 07:03:51;;;;;;;1.60;1.50;;;;;;;;;;5045018;28;20243;-77
2023/07/30 07:06:16;;;;;;;1.70;1.60;;;;;;;;;;5045290;28;20176;-77
2023/07/30 07:08:41;;;;;;;2.67;1.60;;;;;;;;;;5046278;28;20219;-76
2023/07/30 07:11:07;;;;;;;2.23;1.70;;;;;;;;;;5037091;28;20181;-77
2023/07/30 07:13:32;;;;;;;1.90;1.70;;;;;;;;;;5043459;28;20211;-77
2023/07/30 07:15:57;;;;;;;1.73;1.63;;;;;;;;;;5040335;28;20178;-77
2023/07/30 07:18:22;;;;;;;2.20;2.00;;;;;;;;;;5038407;28;20189;-77
2023/07/30 07:20:47;;;;;;;2.23;1.90;;;;;;;;;;5033424;28;20194;-77
2023/07/30 07:23:13;;;;;;;1.97;1.87;;;;;;;;;;5043596;28;20184;-77
2023/07/30 07:25:38;;;;;;;1.97;1.87;;;;;;;;;;5043532;28;20193;-77
2023/07/30 07:28:03;;;;;;;2.83;2.20;;;;;;;;;;5038814;28;20183;-76
2023/07/30 07:30:29;;;;;;;2.33;2.10;;;;;;;;;;5042709;28;20194;-77
2023/07/30 07:32:55;;;;;;;2.87;2.37;;;;;;;;;;5036114;28;20200;-77
2023/07/30 07:35:20;;;;;;;1.77;1.67;;;;;;;;;;5041635;28;20194;-77
2023/07/30 07:37:46;;;;;;;2.37;2.17;;;;;;;;;;5042229;28;20172;-76
2023/07/30 07:40:11;;;;;;;2.97;2.10;;;;;;;;;;5038941;28;20248;-77
2023/07/30 07:42:37;;;;;;;3.07;2.17;;;;;;;;;;5045979;28;20277;-77
2023/07/30 07:45:02;;;;;;;2.27;2.07;;;;;;;;;;5060082;28;20184;-77
2023/07/30 07:47:27;;;;;;;2.70;2.13;;;;;;;;;;5041474;28;20191;-77
2023/07/30 07:49:53;;;;;;;2.83;2.63;;;;;;;;;;5035845;28;20183;-76
2023/07/30 07:52:20;;;;;;;3.10;2.10;;;;;;;;;;5047727;28;20211;-77
2023/07/30 07:54:45;;;;;;;2.37;2.23;;;;;;;;;;5034870;28;20180;-76
2023/07/30 07:57:10;;;;;;;2.57;2.37;;;;;;;;;;5039928;28;20204;-76
2023/07/30 07:59:36;;;;;;;2.80;2.50;;;;;;;;;;5039524;28;20182;-76
2023/07/30 08:02:01;;;;;;;2.87;2.50;;;;;;;;;;5046185;28;20260;-76
2023/07/30 08:04:27;;;;;;;2.37;2.17;;;;;;;;;;5036711;28;20225;-77
2023/07/30 08:06:52;;;;;;;2.63;2.10;;;;;;;;;;5033427;28;20180;-76
2023/07/30 08:09:17;;;;;;;2.50;2.30;;;;;;;;;;5032103;28;20183;-77
2023/07/30 08:11:42;;;;;;;3.07;2.33;;;;;;;;;;5039590;28;20221;-77
2023/07/30 08:14:07;;;;;;;2.27;2.10;;;;;;;;;;5035870;28;20178;-76
2023/07/30 08:16:33;;;;;;;2.10;1.90;;;;;;;;;;5043351;28;20173;-77
2023/07/30 08:18:58;;;;;;;2.30;2.10;;;;;;;;;;5046755;28;20259;-76
2023/07/30 08:21:23;;;;;;;2.83;2.33;;;;;;;;;;5039455;28;20177;-76
2023/07/30 08:23:48;;;;;;;2.87;2.20;;;;;;;;;;5038727;28;20208;-76
2023/07/30 08:26:13;;;;;;;2.47;2.27;;;;;;;;;;5041467;28;20177;-77
2023/07/30 08:28:39;;;;;;;2.87;2.17;;;;;;;;;;5038805;28;20222;-76
2023/07/30 08:31:05;;;;;;;4.80;2.60;;;;;;;;;;5044486;28;20182;-76
2023/07/30 08:33:30;;;;;;;2.23;2.03;;;;;;;;;;5045846;28;20200;-76
2023/07/30 08:35:56;;;;;;;2.77;2.50;;;;;;;;;;5037656;28;20213;-76
2023/07/30 08:38:22;;;;;;;2.90;2.07;;;;;;;;;;5042709;28;20228;-76
2023/07/30 08:40:47;;;;;;;6.50;2.60;;;;;;;;;;5042162;28;20209;-77
2023/07/30 08:43:15;;;;;;;2.47;2.10;;;;;;;;;;5037888;28;20190;-77
2023/07/30 08:45:40;;;;;;;3.53;2.40;;;;;;;;;;5044044;28;20222;-76
2023/07/30 08:48:06;;;;;;;5.20;2.40;;;;;;;;;;5035515;28;20182;-79
2023/07/30 08:50:31;;;;;;;2.70;2.43;;;;;;;;;;5036717;28;20235;-79
2023/07/30 08:52:57;;;;;;;4.60;2.80;;;;;;;;;;5035013;28;20294;-79
2023/07/30 08:55:24;;;;;;;3.80;2.37;;;;;;;;;;5037832;28;20173;-79
2023/07/30 08:57:50;;;;;;;3.00;2.37;;;;;;;;;;5035697;28;20184;-79
2023/07/30 09:00:16;;;;;;;2.20;2.00;;;;;;;;;;5035406;28;20201;-79
2023/07/30 09:02:50;;;;;;;2.37;2.17;;;;;;;;;;5031995;28;20261;-78
2023/07/30 09:05:16;;;;;;;2.47;2.27;;;;;;;;;;5043787;28;20253;-79
2023/07/30 09:07:41;;;;;;;4.23;2.67;;;;;;;;;;5041989;28;20265;-77
2023/07/30 09:10:07;;;;;;;3.20;2.57;;;;;;;;;;5038497;28;20204;-79
2023/07/30 09:12:33;;;;;;;2.43;2.10;;;;;;;;;;5042800;28;20220;-78
2023/07/30 09:14:58;;;;;;;2.47;2.27;;;;;;;;;;5038652;28;20269;-78
2023/07/30 09:17:24;;;;;;;2.70;2.50;;;;;;;;;;5044047;28;20269;-78
2023/07/30 09:19:51;;;;;;;2.67;2.47;;;;;;;;;;5035419;28;20181;-77
2023/07/30 09:22:40;;;;;;;2.63;2.43;;;;;;;;;;5039981;28;20275;-77
2023/07/30 09:25:06;;;;;;;6.30;3.10;;;;;;;;;;5041806;28;20274;-76
2023/07/30 09:27:32;;;;;;;2.67;2.47;;;;;;;;;;5038869;28;20301;-76
2023/07/30 09:29:58;;;;;;;2.60;2.40;;;;;;;;;;5040871;28;20187;-78
2023/07/30 09:32:30;;;;;;;3.63;2.60;;;;;;;;;;5038290;28;20217;-78
2023/07/30 09:34:55;;;;;;;3.37;2.40;;;;;;;;;;5035945;28;20177;-78
2023/07/30 09:37:21;;;;;;;2.50;2.30;;;;;;;;;;5036141;28;20200;-79
2023/07/30 09:39:49;;;;;;;2.20;2.10;;;;;;;;;;5039347;28;20210;-78
2023/07/30 09:42:15;;;;;;;2.60;2.40;;;;;;;;;;5035569;28;20203;-79
2023/07/30 09:44:40;;;;;;;3.63;2.50;;;;;;;;;;5042292;28;20188;-78
2023/07/30 09:47:09;;;;;;;3.07;2.87;;;;;;;;;;5041766;28;20187;-78
2023/07/30 09:49:35;;;;;;;2.90;2.60;;;;;;;;;;5039724;28;20197;-78
2023/07/30 09:52:01;;;;;;;4.60;2.70;;;;;;;;;;5037224;28;20204;-79
2023/07/30 09:54:26;;;;;;;3.73;2.70;;;;;;;;;;5038244;28;20293;-79
2023/07/30 09:56:51;;;;;;;3.30;2.90;;;;;;;;;;5037993;28;20236;-78
2023/07/30 09:59:17;;;;;;;3.70;2.53;;;;;;;;;;5043936;28;20196;-78
2023/07/30 10:01:44;;;;;;;3.70;2.80;;;;;;;;;;5032950;28;20232;-79
2023/07/30 10:04:11;;;;;;;2.30;2.10;;;;;;;;;;5042745;28;20216;-78
2023/07/30 10:06:42;;;;;;;3.07;2.77;;;;;;;;;;5041969;28;20204;-78
2023/07/30 10:09:08;;;;;;;3.23;2.90;;;;;;;;;;5037888;28;20178;-78
2023/07/30 10:11:34;;;;;;;3.17;2.77;;;;;;;;;;5039845;28;20396;-78
2023/07/30 10:14:00;;;;;;;3.90;3.07;;;;;;;;;;5038783;28;20190;-79
2023/07/30 10:16:34;;;;;;;2.90;2.70;;;;;;;;;;5037098;28;20184;-78
2023/07/30 10:18:59;;;;;;;3.67;2.60;;;;;;;;;;5035856;28;20188;-79
2023/07/30 10:21:26;;;;;;;2.97;2.40;;;;;;;;;;5034866;28;20268;-79
2023/07/30 10:24:04;;;;;;;3.03;2.70;;;;;;;;;;5030373;28;20183;-78
2023/07/30 10:26:33;;;;;;;3.33;2.50;;;;;;;;;;5041452;28;20187;-78
2023/07/30 10:29:17;;;;;;;2.97;2.63;;;;;;;;;;5039148;28;20232;-79
2023/07/30 10:31:56;;;;;;;3.00;2.70;;;;;;;;;;5036627;28;20183;-78
2023/07/30 10:34:25;;;;;;;3.30;2.80;;;;;;;;;;5039047;28;20187;-78
2023/07/30 10:36:50;;;;;;;3.97;2.60;;;;;;;;;;5034304;28;20162;-78
2023/07/30 10:39:16;;;;;;;2.43;2.23;;;;;;;;;;5042659;28;20187;-78
2023/07/30 10:41:43;;;;;;;2.80;2.37;;;;;;;;;;5035831;28;20214;-78
2023/07/30 10:44:17;;;;;;;2.80;2.60;;;;;;;;;;5038086;28;20177;-78
2023/07/30 10:46:42;;;;;;;3.40;2.77;;;;;;;;;;5034944;28;20180;-78
2023/07/30 10:49:09;;;;;;;3.37;2.67;;;;;;;;;;5039110;28;20202;-78
2023/07/30 10:51:35;;;;;;;3.80;3.23;;;;;;;;;;5038283;28;20175;-78
2023/07/30 10:54:00;;;;;;;2.53;2.33;;;;;;;;;;5035397;28;20212;-79
2023/07/30 10:56:25;;;;;;;2.93;2.53;;;;;;;;;;5045740;28;20262;-78
2023/07/30 10:58:52;;;;;;;3.30;2.60;;;;;;;;;;5042639;28;20176;-78
2023/07/30 11:01:17;;;;;;;3.27;2.97;;;;;;;;;;5035082;28;20187;-78
2023/07/30 11:03:42;;;;;;;2.90;2.60;;;;;;;;;;5036898;28;20233;-78
2023/07/30 11:06:10;;;;;;;3.47;2.87;;;;;;;;;;5036933;28;20185;-78
2023/07/30 11:08:36;;;;;;;3.60;2.80;;;;;;;;;;5041978;28;20337;-78
2023/07/30 11:11:01;;;;;;;2.27;2.13;;;;;;;;;;5043134;28;20222;-78
2023/07/30 11:13:26;;;;;;;3.20;2.83;;;;;;;;;;5038245;28;20247;-78
2023/07/30 11:15:52;;;;;;;2.70;2.50;;;;;;;;;;5041073;28;20185;-78
2023/07/30 11:18:17;;;;;;;2.70;2.50;;;;;;;;;;5038058;28;20181;-78
2023/07/30 11:20:42;;;;;;;4.37;2.90;;;;;;;;;;5039995;28;20178;-78
2023/07/30 11:23:17;;;;;;;2.97;2.53;;;;;;;;;;5041667;28;20182;-78
2023/07/30 11:25:45;;;;;;;4.60;2.87;;;;;;;;;;5040470;28;20183;-78
2023/07/30 11:28:10;;;;;;;2.80;2.60;;;;;;;;;;5039549;28;20172;-79
2023/07/30 11:30:36;;;;;;;2.60;2.40;;;;;;;;;;5042666;28;20206;-78
2023/07/30 11:33:01;;;;;;;3.20;2.90;;;;;;;;;;5037867;28;20217;-79
2023/07/30 11:35:26;;;;;;;2.97;2.77;;;;;;;;;;5042159;28;20194;-78
2023/07/30 11:37:52;;;;;;;3.00;2.73;;;;;;;;;;5037747;28;20171;-79
2023/07/30 11:40:17;;;;;;;6.13;2.83;;;;;;;;;;5041721;28;20168;-78
2023/07/30 11:42:42;;;;;;;2.90;2.47;;;;;;;;;;5040734;28;20223;-79
2023/07/30 11:45:23;;;;;;;5.53;3.00;;;;;;;;;;5035223;28;20213;-78
2023/07/30 11:47:48;;;;;;;2.83;2.20;;;;;;;;;;5035946;28;20399;-79
2023/07/30 11:50:14;;;;;;;2.63;2.33;;;;;;;;;;5047193;28;20230;-79
2023/07/30 11:52:55;;;;;;;3.80;2.30;;;;;;;;;;5041317;28;20218;-78
2023/07/30 11:55:20;;;;;;;2.33;2.10;;;;;;;;;;5042593;28;20196;-79
2023/07/30 11:57:45;;;;;;;2.83;2.53;;;;;;;;;;5040976;28;20178;-79
2023/07/30 12:00:11;;;;;;;3.23;2.70;;;;;;;;;;5042779;28;20193;-78
2023/07/30 12:02:37;;;;;;;2.83;2.43;;;;;;;;;;5045043;28;20232;-79
2023/07/30 12:05:03;;;;;;;2.50;2.27;;;;;;;;;;5043482;28;20185;-79
2023/07/30 12:07:28;;;;;;;3.40;2.50;;;;;;;;;;5046892;28;20192;-79
2023/07/30 12:09:53;;;;;;;2.50;2.30;;;;;;;;;;5035520;28;20195;-79
2023/07/30 12:12:18;;;;;;;2.77;2.47;;;;;;;;;;5048960;28;20260;-78
2023/07/30 12:14:50;;;;;;;4.63;2.67;;;;;;;;;;5035910;28;20209;-79
2023/07/30 12:17:15;;;;;;;5.40;2.53;;;;;;;;;;5045311;28;20177;-79
2023/07/30 12:19:41;;;;;;;2.80;2.60;;;;;;;;;;5044773;28;20179;-79
2023/07/30 12:22:06;;;;;;;2.23;2.03;;;;;;;;;;5043477;28;20215;-79
2023/07/30 12:24:31;;;;;;;3.03;2.73;;;;;;;;;;5047622;28;20192;-78
2023/07/30 12:26:56;;;;;;;2.70;2.17;;;;;;;;;;5042828;28;20224;-79
2023/07/30 12:29:21;;;;;;;2.80;2.00;;;;;;;;;;5045408;28;20226;-79
2023/07/30 12:31:47;;;;;;;2.47;2.27;;;;;;;;;;5044465;28;20181;-78
2023/07/30 12:34:12;;;;;;;2.63;2.10;;;;;;;;;;5038441;28;20179;-78
2023/07/30 12:36:37;;;;;;;3.20;2.27;;;;;;;;;;5044632;28;20175;-79
2023/07/30 12:39:03;;;;;;;2.70;2.50;;;;;;;;;;5044357;28;20297;-78
2023/07/30 12:41:28;;;;;;;2.80;2.10;;;;;;;;;;5043791;28;20186;-79
2023/07/30 12:43:54;;;;;;;4.17;2.47;;;;;;;;;;5046029;28;20184;-79
2023/07/30 12:46:19;;;;;;;2.73;2.13;;;;;;;;;;5037245;28;20215;-79
2023/07/30 12:48:44;;;;;;;2.20;2.00;;;;;;;;;;5043440;28;20188;-78
2023/07/30 12:51:09;;;;;;;2.47;2.23;;;;;;;;;;5039308;28;20180;-78
2023/07/30 12:53:35;;;;;;;3.60;2.30;;;;;;;;;;5041128;28;20214;-79
2023/07/30 12:56:00;;;;;;;2.60;2.30;;;;;;;;;;5040925;28;20270;-79
2023/07/30 12:58:25;;;;;;;2.93;2.10;;;;;;;;;;5039471;28;20251;-79
2023/07/30 13:00:50;;;;;;;3.77;2.53;;;;;;;;;;5038388;28;20194;-77
2023/07/30 13:03:16;;;;;;;2.50;1.83;;;;;;;;;;5040266;28;20248;-77
2023/07/30 13:05:41;;;;;;;3.67;2.13;;;;;;;;;;5041719;28;20243;-77
2023/07/30 13:08:06;;;;;;;2.33;2.13;;;;;;;;;;5040556;28;20178;-76
2023/07/30 13:10:31;;;;;;;4.40;2.30;;;;;;;;;;5046045;28;20186;-76
2023/07/30 13:12:56;;;;;;;2.93;2.20;;;;;;;;;;5039645;28;20207;-76
2023/07/30 13:15:22;;;;;;;2.90;2.27;;;;;;;;;;5043336;28;20174;-76
2023/07/30 13:17:47;;;;;;;2.27;2.07;;;;;;;;;;5049718;28;20202;-76
2023/07/30 13:20:12;;;;;;;2.50;2.20;;;;;;;;;;5043888;28;20176;-77
2023/07/30 13:22:37;;;;;;;2.00;1.80;;;;;;;;;;5035085;28;20187;-77
2023/07/30 13:25:03;;;;;;;5.90;2.23;;;;;;;;;;5044864;28;20261;-76
2023/07/30 13:27:28;;;;;;;2.43;2.20;;;;;;;;;;5037892;28;20240;-77
2023/07/30 13:29:53;;;;;;;7.33;2.13;;;;;;;;;;5035923;28;20191;-77
2023/07/30 13:32:18;;;;;;;3.53;1.90;;;;;;;;;;5039933;28;20199;-77
2023/07/30 13:34:43;;;;;;;5.73;2.20;;;;;;;;;;5047619;28;20177;-77
2023/07/30 13:37:09;;;;;;;4.23;2.43;;;;;;;;;;5041147;28;20176;-77
2023/07/30 13:39:34;;;;;;;4.53;2.40;;;;;;;;;;5037025;28;20187;-77
2023/07/30 13:42:00;;;;;;;2.70;1.90;;;;;;;;;;5039082;28;20185;-77
2023/07/30 13:44:31;;;;;;;2.30;2.10;;;;;;;;;;5037819;28;20191;-77
2023/07/30 13:46:56;;;;;;;3.87;2.13;;;;;;;;;;5035395;28;20193;-77
2023/07/30 13:49:21;;;;;;;2.80;2.23;;;;;;;;;;5034005;28;20184;-77
2023/07/30 13:51:46;;;;;;;4.60;2.60;;;;;;;;;;5039245;28;20272;-77
2023/07/30 13:54:12;;;;;;;2.60;2.20;;;;;;;;;;5042535;28;20185;-77
2023/07/30 13:56:38;;;;;;;5.07;2.57;;;;;;;;;;5043263;28;20214;-76
2023/07/30 13:59:03;;;;;;;3.60;2.23;;;;;;;;;;5045434;28;20178;-77
2023/07/30 14:01:29;;;;;;;4.27;3.03;;;;;;;;;;5043910;28;20178;-77
2023/07/30 14:03:54;;;;;;;3.53;2.47;;;;;;;;;;5045342;28;20252;-77
2023/07/30 14:06:19;;;;;;;3.23;2.07;;;;;;;;;;5043362;28;20188;-76
2023/07/30 14:08:45;;;;;;;2.20;1.50;;;;;;;;;;5047505;28;20248;-77
2023/07/30 14:11:10;;;;;;;2.73;1.70;;;;;;;;;;5043901;28;20214;-76
2023/07/30 14:13:35;;;;;;;3.37;2.00;;;;;;;;;;5039047;28;20271;-77
2023/07/30 14:16:00;;;;;;;2.70;2.10;;;;;;;;;;5039807;28;20420;-77
2023/07/30 14:18:25;;;;;;;3.23;2.00;;;;;;;;;;5043933;28;20223;-77
2023/07/30 14:20:51;;;;;;;4.13;1.80;;;;;;;;;;5036346;28;20181;-77
2023/07/30 14:23:16;;;;;;;3.23;1.97;;;;;;;;;;5037991;28;20181;-77
2023/07/30 14:25:41;;;;;;;2.90;2.10;;;;;;;;;;5048110;28;20191;-77
2023/07/30 14:28:06;;;;;;;3.20;2.20;;;;;;;;;;5047971;28;20314;-77
2023/07/30 14:30:32;;;;;;;4.47;2.40;;;;;;;;;;5042759;28;20182;-77
2023/07/30 14:32:57;;;;;;;2.20;1.80;;;;;;;;;;5037043;28;20200;-79
2023/07/30 14:35:22;;;;;;;2.80;2.27;;;;;;;;;;5036226;28;20190;-79